Terminal Aerodrome Forecast
Issued by NWS

Home | Current Version | Previous Version | Text Only | Print | Product List | Glossary On
Versions: 1 2 3 4 5 6 7 8 9 10 11 12 13 14
000
FTUS44 KCRP 012327
TAFALI
TAF
KALI 012327Z 0200/0224 VRB06KT P6SM SKC
     FM020900 20005KT 1 1/2SM BR SKC
     FM021000 VRB03KT 1/2SM FG VV004
     FM021300 17006KT P6SM FEW025
     FM021900 13011KT P6SM SCT035=

USA.gov is the U.S. government's official web portal to all federal, state and local government web resources and services.